createdAt,value
2018-09-29T00:00:46.152Z,90.61
2018-09-29T00:01:46.072Z,89.95
2018-09-29T00:02:45.995Z,89.86
2018-09-29T00:03:45.918Z,89.09
2018-09-29T00:04:45.834Z,89.47
2018-09-29T00:05:45.752Z,90.05
2018-09-29T00:06:45.689Z,89.76
2018-09-29T00:07:45.593Z,89.95
2018-09-29T00:08:45.524Z,89.76
2018-09-29T00:09:45.448Z,89.67
2018-09-29T00:10:45.360Z,89.76
2018-09-29T00:11:45.278Z,89.76
2018-09-29T00:12:45.209Z,89.57
2018-09-29T00:13:45.121Z,89.09
2018-09-29T00:14:45.049Z,89.67
2018-09-29T00:15:44.966Z,89.28
2018-09-29T00:16:44.887Z,90.52
2018-09-29T00:17:44.806Z,90.23
2018-09-29T00:18:44.735Z,90.61
2018-09-29T00:19:44.646Z,90.52
2018-09-29T00:20:44.571Z,89.86
2018-09-29T00:21:44.492Z,90.19
2018-09-29T00:22:44.410Z,89.76
2018-09-29T00:23:44.339Z,89.43
2018-09-29T00:24:44.260Z,89.81
2018-09-29T00:25:44.171Z,89.72
2018-09-29T00:26:44.096Z,90.52
2018-09-29T00:27:44.019Z,90.85
2018-09-29T00:28:43.935Z,89.72
2018-09-29T00:29:43.852Z,89.62
2018-09-29T00:30:43.778Z,89.14
2018-09-29T00:31:43.697Z,89.43
2018-09-29T00:32:43.627Z,89.62
2018-09-29T00:33:43.538Z,89.81
2018-09-29T00:34:43.459Z,89.24
2018-09-29T00:35:43.382Z,89.72
2018-09-29T00:36:43.300Z,89.81
2018-09-29T00:37:43.233Z,90.19
2018-09-29T00:38:43.182Z,88.95
2018-09-29T00:39:43.062Z,89.72
2018-09-29T00:40:42.992Z,89.14
2018-09-29T00:41:42.905Z,89.81
2018-09-29T00:42:42.823Z,90.19
2018-09-29T00:43:42.746Z,89.05
2018-09-29T00:44:42.667Z,89.24
2018-09-29T00:45:42.592Z,89.62
2018-09-29T00:46:42.504Z,89.72
2018-09-29T00:47:42.429Z,89.81
2018-09-29T00:48:42.350Z,89.33
2018-09-29T00:49:42.269Z,89.33
2018-09-29T00:50:42.191Z,89.24
2018-09-29T00:51:42.112Z,89.53
2018-09-29T00:52:42.034Z,89.72
2018-09-29T00:53:41.952Z,89.81
2018-09-29T00:54:41.876Z,89.43
2018-09-29T00:55:41.802Z,89.53
2018-09-29T00:56:41.730Z,89.62
2018-09-29T00:57:41.629Z,89.53
2018-09-29T00:58:41.554Z,89.43
2018-09-29T00:59:41.484Z,88.95
2018-09-29T01:00:41.398Z,89.24
2018-09-29T01:01:41.317Z,89.62
2018-09-29T01:02:41.239Z,89.81
2018-09-29T01:03:41.158Z,89.72
2018-09-29T01:04:41.087Z,90.09
2018-09-29T01:05:41.002Z,89.81
2018-09-29T01:06:40.922Z,88.86
2018-09-29T01:07:40.843Z,89.72
2018-09-29T01:08:40.763Z,90.57
2018-09-29T01:09:40.682Z,89.62
2018-09-29T01:10:40.605Z,89.90
2018-09-29T01:11:40.545Z,89.81
2018-09-29T01:12:40.444Z,89.81
2018-09-29T01:13:40.366Z,89.81
2018-09-29T01:14:40.296Z,89.53
2018-09-29T01:15:40.208Z,89.81
2018-09-29T01:16:40.127Z,90.38
2018-09-29T01:17:40.049Z,90.38
2018-09-29T01:18:39.967Z,90.00
2018-09-29T01:19:39.887Z,89.14
2018-09-29T01:20:39.810Z,89.81
2018-09-29T01:21:39.736Z,89.72
2018-09-29T01:22:39.655Z,89.81
2018-09-29T01:23:39.575Z,89.90
2018-09-29T01:24:39.493Z,88.76
2018-09-29T01:25:39.411Z,89.05
2018-09-29T01:26:39.332Z,89.62
2018-09-29T01:27:39.253Z,89.81
2018-09-29T01:28:39.176Z,89.81
2018-09-29T01:29:39.093Z,89.72
2018-09-29T01:30:39.011Z,89.72
2018-09-29T01:31:38.929Z,89.72
2018-09-29T01:32:38.854Z,90.09
2018-09-29T01:33:38.776Z,89.72
2018-09-29T01:34:38.698Z,89.90
2018-09-29T01:35:38.619Z,89.81
2018-09-29T01:36:38.548Z,89.14
2018-09-29T01:37:38.460Z,89.33
2018-09-29T01:38:38.376Z,89.62
2018-09-29T01:39:38.299Z,89.05
2018-09-29T01:40:38.220Z,89.24
2018-09-29T01:41:38.139Z,88.95
2018-09-29T01:42:38.061Z,89.33
2018-09-29T01:43:37.979Z,88.95
2018-09-29T01:44:37.903Z,88.95
2018-09-29T01:45:37.830Z,89.62
2018-09-29T01:46:37.742Z,89.72
2018-09-29T01:47:37.665Z,89.33
2018-09-29T01:48:37.583Z,88.95
2018-09-29T01:49:37.509Z,88.95
2018-09-29T01:50:37.424Z,89.24
2018-09-29T01:51:37.345Z,89.53
2018-09-29T01:52:37.265Z,89.72
2018-09-29T01:53:37.187Z,90.19
2018-09-29T01:54:37.109Z,90.28
2018-09-29T01:55:37.036Z,89.62
2018-09-29T01:56:36.950Z,89.43
2018-09-29T01:57:36.872Z,89.48
2018-09-29T01:58:36.788Z,89.29
2018-09-29T01:59:36.703Z,89.20
2018-09-29T02:00:36.628Z,89.67
2018-09-29T02:01:36.548Z,89.39
2018-09-29T02:02:36.519Z,89.29
2018-09-29T02:03:36.398Z,89.20
2018-09-29T02:04:36.312Z,89.20
2018-09-29T02:05:36.228Z,88.72
2018-09-29T02:06:36.147Z,88.53
2018-09-29T02:07:36.070Z,88.81
2018-09-29T02:08:35.993Z,89.48
2018-09-29T02:09:35.911Z,88.62
2018-09-29T02:10:35.828Z,89.20
2018-09-29T02:11:35.749Z,89.29
2018-09-29T02:12:35.671Z,89.20
2018-09-29T02:13:35.597Z,89.00
2018-09-29T02:14:35.512Z,89.00
2018-09-29T02:15:35.431Z,88.72
2018-09-29T02:16:35.353Z,88.72
2018-09-29T02:17:35.271Z,88.91
2018-09-29T02:18:35.193Z,88.62
2018-09-29T02:19:35.111Z,89.67
2018-09-29T02:20:35.032Z,89.10
2018-09-29T02:21:34.952Z,89.20
2018-09-29T02:22:34.873Z,89.00
2018-09-29T02:23:34.798Z,88.72
2018-09-29T02:24:34.711Z,88.72
2018-09-29T02:25:34.633Z,88.72
2018-09-29T02:26:34.554Z,88.24
2018-09-29T02:27:34.472Z,88.34
2018-09-29T02:28:34.408Z,88.62
2018-09-29T02:29:34.316Z,88.72
2018-09-29T02:30:34.232Z,88.81
2018-09-29T02:31:34.153Z,88.53
2018-09-29T02:32:34.071Z,88.62
2018-09-29T02:33:33.997Z,88.81
2018-09-29T02:34:33.914Z,88.91
2018-09-29T02:35:33.833Z,88.24
2018-09-29T02:36:33.753Z,88.91
2018-09-29T02:37:33.671Z,88.62
2018-09-29T02:38:33.593Z,88.62
2018-09-29T02:39:33.513Z,88.53
2018-09-29T02:40:33.433Z,89.29
2018-09-29T02:41:33.352Z,89.67
2018-09-29T02:42:33.275Z,88.62
2018-09-29T02:43:33.193Z,88.62
2018-09-29T02:44:33.110Z,88.43
2018-09-29T02:45:33.039Z,88.62
2018-09-29T02:46:32.953Z,89.58
2018-09-29T02:47:32.873Z,88.53
2018-09-29T02:48:32.794Z,88.91
2018-09-29T02:49:32.717Z,88.91
2018-09-29T02:50:32.633Z,88.62
2018-09-29T02:51:32.553Z,89.00
2018-09-29T02:52:32.473Z,88.62
2018-09-29T02:53:32.394Z,88.91
2018-09-29T02:54:32.313Z,89.10
2018-09-29T02:55:32.238Z,88.43
2018-09-29T02:56:32.151Z,89.48
2018-09-29T02:57:32.070Z,88.43
2018-09-29T02:58:31.991Z,88.62
2018-09-29T02:59:31.916Z,88.72
2018-09-29T03:00:31.843Z,88.72
2018-09-29T03:01:31.752Z,89.00
2018-09-29T03:02:31.671Z,89.00
2018-09-29T03:03:31.593Z,89.10
2018-09-29T03:04:31.521Z,89.00
2018-09-29T03:05:31.436Z,88.81
2018-09-29T03:06:31.351Z,88.68
2018-09-29T03:07:31.272Z,89.00
2018-09-29T03:08:31.195Z,88.62
2018-09-29T03:09:31.116Z,89.15
2018-09-29T03:10:31.030Z,88.81
2018-09-29T03:11:30.951Z,88.58
2018-09-29T03:12:30.875Z,88.77
2018-09-29T03:13:30.804Z,88.39
2018-09-29T03:14:30.712Z,88.68
2018-09-29T03:15:30.637Z,88.24
2018-09-29T03:16:30.554Z,88.62
2018-09-29T03:17:30.473Z,88.81
2018-09-29T03:18:30.390Z,88.81
2018-09-29T03:19:30.313Z,88.91
2018-09-29T03:20:30.231Z,89.10
2018-09-29T03:21:30.152Z,88.77
2018-09-29T03:22:30.068Z,88.24
2018-09-29T03:23:29.991Z,88.68
2018-09-29T03:24:29.908Z,88.06
2018-09-29T03:25:29.834Z,88.34
2018-09-29T03:26:29.748Z,88.58
2018-09-29T03:27:29.672Z,88.68
2018-09-29T03:28:29.588Z,88.39
2018-09-29T03:29:29.507Z,88.58
2018-09-29T03:30:29.430Z,88.29
2018-09-29T03:31:29.355Z,88.39
2018-09-29T03:32:29.274Z,88.77
2018-09-29T03:33:29.188Z,88.10
2018-09-29T03:34:29.107Z,88.48
2018-09-29T03:35:29.027Z,88.01
2018-09-29T03:36:28.947Z,88.20
2018-09-29T03:37:28.861Z,88.10
2018-09-29T03:38:28.789Z,88.77
2018-09-29T03:39:28.705Z,88.48
2018-09-29T03:40:28.624Z,88.58
2018-09-29T03:41:28.548Z,88.77
2018-09-29T03:42:28.467Z,88.39
2018-09-29T03:43:28.385Z,88.10
2018-09-29T03:44:28.302Z,88.58
2018-09-29T03:45:28.225Z,88.77
2018-09-29T03:46:28.143Z,88.87
2018-09-29T03:47:28.062Z,88.77
2018-09-29T03:48:27.984Z,88.29
2018-09-29T03:49:27.897Z,88.58
2018-09-29T03:50:27.820Z,88.68
2018-09-29T03:51:27.741Z,88.77
2018-09-29T03:52:27.659Z,88.77
2018-09-29T03:53:27.594Z,88.29
2018-09-29T03:54:27.496Z,88.77
2018-09-29T03:55:27.424Z,88.68
2018-09-29T03:56:27.337Z,88.77
2018-09-29T03:57:27.250Z,88.87
2018-09-29T03:58:27.175Z,88.77
2018-09-29T03:59:27.100Z,88.58
2018-09-29T04:00:27.012Z,88.77
2018-09-29T04:01:26.930Z,88.77
2018-09-29T04:02:26.853Z,88.58
2018-09-29T04:03:26.771Z,88.20
2018-09-29T04:04:26.691Z,88.58
2018-09-29T04:05:26.608Z,88.87
2018-09-29T04:06:26.533Z,88.96
2018-09-29T04:07:26.447Z,88.96
2018-09-29T04:08:26.365Z,88.68
2018-09-29T04:09:26.284Z,88.20
2018-09-29T04:10:26.203Z,89.06
2018-09-29T04:11:26.124Z,88.87
2018-09-29T04:12:26.060Z,88.39
2018-09-29T04:13:25.959Z,88.29
2018-09-29T04:14:25.884Z,88.20
2018-09-29T04:15:25.802Z,88.39
2018-09-29T04:16:25.728Z,88.10
2018-09-29T04:17:25.637Z,88.68
2018-09-29T04:18:25.562Z,88.87
2018-09-29T04:19:25.479Z,88.68
2018-09-29T04:20:25.399Z,88.29
2018-09-29T04:21:25.316Z,88.20
2018-09-29T04:22:25.235Z,88.68
2018-09-29T04:23:25.152Z,88.68
2018-09-29T04:24:25.075Z,88.29
2018-09-29T04:25:24.996Z,88.68
2018-09-29T04:26:24.916Z,88.77
2018-09-29T04:27:24.831Z,88.68
2018-09-29T04:28:24.753Z,88.58
2018-09-29T04:29:24.674Z,88.20
2018-09-29T04:30:24.589Z,88.01
2018-09-29T04:31:24.511Z,88.87
2018-09-29T04:32:24.429Z,88.68
2018-09-29T04:33:24.350Z,88.01
2018-09-29T04:34:24.266Z,88.29
2018-09-29T04:35:24.191Z,88.20
2018-09-29T04:36:24.106Z,88.10
2018-09-29T04:37:24.088Z,89.06
2018-09-29T04:38:23.944Z,88.29
2018-09-29T04:39:23.863Z,88.01
2018-09-29T04:40:23.787Z,88.77
2018-09-29T04:41:23.706Z,88.20
2018-09-29T04:42:23.622Z,88.39
2018-09-29T04:43:23.543Z,88.58
2018-09-29T04:44:23.460Z,87.82
2018-09-29T04:45:23.376Z,88.39
2018-09-29T04:46:23.303Z,88.10
2018-09-29T04:47:23.219Z,88.39
2018-09-29T04:48:23.140Z,88.29
2018-09-29T04:49:23.056Z,88.10
2018-09-29T04:50:22.975Z,88.58
2018-09-29T04:51:22.897Z,88.29
2018-09-29T04:52:22.818Z,88.20
2018-09-29T04:53:22.733Z,88.96
2018-09-29T04:54:22.661Z,88.20
2018-09-29T04:55:22.572Z,88.68
2018-09-29T04:56:22.496Z,88.20
2018-09-29T04:57:22.409Z,88.58
2018-09-29T04:58:22.329Z,88.29
2018-09-29T04:59:22.250Z,88.63
2018-09-29T05:00:22.168Z,88.54
2018-09-29T05:01:22.088Z,88.25
2018-09-29T05:02:22.007Z,88.16
2018-09-29T05:03:21.929Z,88.68
2018-09-29T05:04:21.844Z,88.77
2018-09-29T05:05:21.761Z,88.10
2018-09-29T05:06:21.685Z,88.10
2018-09-29T05:07:21.601Z,88.77
2018-09-29T05:08:21.525Z,88.87
2018-09-29T05:09:21.440Z,88.58
2018-09-29T05:10:21.359Z,88.73
2018-09-29T05:11:21.285Z,88.54
2018-09-29T05:12:21.198Z,88.39
2018-09-29T05:13:21.120Z,88.35
2018-09-29T05:14:21.037Z,88.73
2018-09-29T05:15:20.959Z,88.82
2018-09-29T05:16:20.874Z,89.01
2018-09-29T05:17:20.792Z,88.25
2018-09-29T05:18:20.714Z,88.16
2018-09-29T05:19:20.633Z,88.73
2018-09-29T05:20:20.546Z,88.25
2018-09-29T05:21:20.469Z,88.54
2018-09-29T05:22:20.389Z,88.06
2018-09-29T05:23:20.348Z,88.63
2018-09-29T05:24:20.227Z,88.73
2018-09-29T05:25:20.150Z,88.16
2018-09-29T05:26:20.064Z,88.35
2018-09-29T05:27:19.980Z,88.25
2018-09-29T05:28:19.903Z,88.35
2018-09-29T05:29:19.820Z,88.54
2018-09-29T05:30:19.740Z,88.25
2018-09-29T05:31:19.660Z,87.97
2018-09-29T05:32:19.595Z,88.35
2018-09-29T05:33:19.495Z,88.35
2018-09-29T05:34:19.417Z,88.25
2018-09-29T05:35:19.338Z,87.97
2018-09-29T05:36:19.255Z,88.44
2018-09-29T05:37:19.182Z,88.16
2018-09-29T05:38:19.102Z,88.73
2018-09-29T05:39:19.012Z,88.63
2018-09-29T05:40:18.938Z,88.73
2018-09-29T05:41:18.852Z,87.97
2018-09-29T05:42:18.768Z,88.35
2018-09-29T05:43:18.693Z,88.54
2018-09-29T05:44:18.606Z,88.06
2018-09-29T05:45:18.526Z,88.63
2018-09-29T05:46:18.447Z,87.97
2018-09-29T05:47:18.367Z,88.44
2018-09-29T05:48:18.325Z,88.35
2018-09-29T05:49:18.201Z,88.63
2018-09-29T05:50:18.115Z,88.39
2018-09-29T05:51:18.039Z,87.82
2018-09-29T05:52:17.958Z,88.39
2018-09-29T05:53:17.878Z,88.29
2018-09-29T05:54:17.798Z,88.68
2018-09-29T05:55:17.715Z,88.68
2018-09-29T05:56:17.635Z,88.39
2018-09-29T05:57:17.554Z,88.29
2018-09-29T05:58:17.472Z,88.29
2018-09-29T05:59:17.393Z,88.58
2018-09-29T06:00:17.382Z,88.20
2018-09-29T06:01:17.249Z,88.58
2018-09-29T06:02:17.145Z,88.87
2018-09-29T06:03:17.062Z,88.01
2018-09-29T06:04:16.989Z,88.96
2018-09-29T06:05:16.922Z,88.39
2018-09-29T06:06:16.845Z,88.58
2018-09-29T06:07:16.827Z,88.77
2018-09-29T06:08:16.662Z,88.87
2018-09-29T06:09:16.582Z,88.77
2018-09-29T06:10:16.502Z,88.82
2018-09-29T06:11:16.425Z,89.01
2018-09-29T06:12:16.342Z,89.11
2018-09-29T06:13:16.304Z,88.82
2018-09-29T06:14:16.179Z,87.87
2018-09-29T06:15:16.102Z,89.20
2018-09-29T06:16:16.019Z,88.92
2018-09-29T06:17:15.933Z,88.25
2018-09-29T06:18:15.853Z,87.77
2018-09-29T06:19:15.775Z,88.82
2018-09-29T06:20:15.690Z,88.35
2018-09-29T06:21:15.617Z,88.16
2018-09-29T06:22:15.529Z,89.01
2018-09-29T06:23:15.447Z,89.01
2018-09-29T06:24:15.368Z,89.01
2018-09-29T06:25:15.286Z,88.82
2018-09-29T06:26:15.209Z,88.68
2018-09-29T06:27:15.128Z,89.06
2018-09-29T06:28:15.049Z,89.06
2018-09-29T06:29:14.964Z,88.87
2018-09-29T06:30:14.883Z,88.96
2018-09-29T06:31:14.802Z,89.06
2018-09-29T06:32:14.721Z,88.58
2018-09-29T06:33:14.642Z,88.68
2018-09-29T06:34:14.570Z,88.87
2018-09-29T06:35:14.482Z,88.87
2018-09-29T06:36:14.407Z,88.77
2018-09-29T06:37:14.316Z,88.77
2018-09-29T06:38:14.254Z,89.34
2018-09-29T06:39:14.155Z,89.15
2018-09-29T06:40:14.076Z,89.72
2018-09-29T06:41:13.995Z,89.53
2018-09-29T06:42:13.912Z,89.06
2018-09-29T06:43:13.837Z,88.96
2018-09-29T06:44:13.751Z,89.43
2018-09-29T06:45:13.672Z,89.62
2018-09-29T06:46:13.590Z,89.76
2018-09-29T06:47:13.517Z,89.43
2018-09-29T06:48:13.459Z,90.10
2018-09-29T06:49:13.346Z,89.25
2018-09-29T06:50:13.264Z,89.43
2018-09-29T06:51:13.188Z,89.53
2018-09-29T06:52:13.109Z,88.96
2018-09-29T06:53:13.029Z,90.00
2018-09-29T06:54:12.944Z,89.86
2018-09-29T06:55:12.865Z,90.24
2018-09-29T06:56:12.787Z,90.05
2018-09-29T06:57:12.704Z,90.14
2018-09-29T06:58:12.623Z,89.86
2018-09-29T06:59:12.542Z,89.86
2018-09-29T07:00:12.460Z,89.76
2018-09-29T07:01:12.382Z,89.76
2018-09-29T07:02:12.302Z,90.81
2018-09-29T07:03:12.228Z,90.52
2018-09-29T07:04:12.137Z,89.76
2018-09-29T07:05:12.059Z,90.14
2018-09-29T07:06:11.981Z,90.52
2018-09-29T07:07:11.899Z,89.86
2018-09-29T07:08:11.820Z,90.05
2018-09-29T07:09:11.741Z,89.67
2018-09-29T07:10:11.657Z,90.05
2018-09-29T07:11:11.578Z,89.76
2018-09-29T07:12:11.499Z,91.00
2018-09-29T07:13:11.420Z,89.76
2018-09-29T07:14:11.336Z,89.86
2018-09-29T07:15:11.258Z,90.52
2018-09-29T07:16:11.181Z,90.81
2018-09-29T07:17:11.105Z,89.90
2018-09-29T07:18:11.018Z,90.57
2018-09-29T07:19:10.939Z,90.85
2018-09-29T07:20:10.860Z,90.66
2018-09-29T07:21:10.782Z,91.24
2018-09-29T07:22:10.702Z,90.00
2018-09-29T07:23:10.618Z,91.04
2018-09-29T07:24:10.545Z,91.04
2018-09-29T07:25:10.458Z,91.04
2018-09-29T07:26:10.381Z,90.57
2018-09-29T07:27:10.298Z,90.66
2018-09-29T07:28:10.217Z,90.85
2018-09-29T07:29:10.136Z,91.89
2018-09-29T07:30:10.058Z,91.04
2018-09-29T07:31:09.978Z,90.95
2018-09-29T07:32:09.960Z,92.18
2018-09-29T07:33:09.817Z,91.61
2018-09-29T07:34:09.739Z,92.04
2018-09-29T07:35:09.685Z,91.85
2018-09-29T07:36:09.583Z,92.04
2018-09-29T07:37:09.505Z,91.66
2018-09-29T07:38:09.424Z,92.80
2018-09-29T07:39:09.339Z,92.13
2018-09-29T07:40:09.262Z,92.04
2018-09-29T07:41:09.182Z,90.80
2018-09-29T07:42:09.103Z,91.56
2018-09-29T07:43:09.022Z,93.27
2018-09-29T07:44:08.945Z,91.28
2018-09-29T07:45:08.865Z,91.66
2018-09-29T07:46:08.811Z,92.13
2018-09-29T07:47:08.707Z,92.75
2018-09-29T07:48:08.628Z,92.56
2018-09-29T07:49:08.592Z,92.46
2018-09-29T07:50:08.468Z,92.23
2018-09-29T07:51:08.391Z,92.08
2018-09-29T07:52:08.305Z,91.61
2018-09-29T07:53:08.231Z,92.37
2018-09-29T07:54:08.152Z,92.37
2018-09-29T07:55:08.072Z,92.18
2018-09-29T07:56:07.993Z,91.89
2018-09-29T07:57:07.911Z,92.27
2018-09-29T07:58:07.832Z,93.04
2018-09-29T07:59:07.760Z,92.94
2018-09-29T08:00:07.681Z,92.99
2018-09-29T08:01:07.597Z,92.13
2018-09-29T08:02:07.519Z,92.99
2018-09-29T08:03:07.447Z,92.61
2018-09-29T08:04:07.361Z,92.22
2018-09-29T08:05:07.282Z,92.99
2018-09-29T08:06:07.213Z,92.89
2018-09-29T08:07:07.126Z,92.70
2018-09-29T08:08:07.048Z,92.80
2018-09-29T08:09:06.969Z,92.61
2018-09-29T08:10:06.890Z,93.55
2018-09-29T08:11:06.812Z,92.32
2018-09-29T08:12:06.735Z,92.70
2018-09-29T08:13:06.655Z,92.70
2018-09-29T08:14:06.577Z,92.70
2018-09-29T08:15:06.502Z,92.56
2018-09-29T08:16:06.422Z,93.60
2018-09-29T08:17:06.341Z,92.84
2018-09-29T08:18:06.268Z,92.36
2018-09-29T08:19:06.186Z,92.65
2018-09-29T08:20:06.109Z,93.70
2018-09-29T08:21:06.034Z,93.23
2018-09-29T08:22:05.950Z,92.08
2018-09-29T08:23:05.872Z,92.18
2018-09-29T08:24:05.800Z,92.84
2018-09-29T08:25:05.716Z,93.70
2018-09-29T08:26:05.643Z,92.70
2018-09-29T08:27:05.560Z,93.46
2018-09-29T08:28:05.483Z,93.55
2018-09-29T08:29:05.407Z,92.99
2018-09-29T08:30:05.328Z,92.99
2018-09-29T08:31:05.250Z,93.27
2018-09-29T08:32:05.173Z,92.89
2018-09-29T08:33:05.093Z,93.74
2018-09-29T08:34:05.018Z,93.27
2018-09-29T08:35:04.941Z,93.94
2018-09-29T08:36:04.864Z,93.60
2018-09-29T08:37:04.784Z,93.51
2018-09-29T08:38:04.708Z,93.51
2018-09-29T08:39:04.630Z,94.37
2018-09-29T08:40:04.553Z,94.27
2018-09-29T08:41:04.474Z,92.94
2018-09-29T08:42:04.398Z,93.89
2018-09-29T08:43:04.324Z,94.08
2018-09-29T08:44:04.243Z,94.51
2018-09-29T08:45:04.161Z,94.13
2018-09-29T08:46:04.092Z,93.93
2018-09-29T08:47:04.014Z,93.08
2018-09-29T08:48:03.935Z,94.03
2018-09-29T08:49:03.860Z,94.03
2018-09-29T08:50:03.782Z,95.41
2018-09-29T08:51:03.703Z,96.22
2018-09-29T08:52:03.627Z,95.65
2018-09-29T08:53:03.555Z,95.27
2018-09-29T08:54:03.473Z,94.07
2018-09-29T08:55:03.400Z,91.92
2018-09-29T08:56:03.322Z,90.39
2018-09-29T08:57:03.250Z,88.62
2018-09-29T08:58:03.167Z,85.61
2018-09-29T08:59:03.092Z,84.50
2018-09-29T09:00:03.019Z,81.77
2018-09-29T09:01:02.939Z,78.27
2018-09-29T09:02:02.863Z,75.33
2018-09-29T09:03:02.786Z,74.57
2018-09-29T09:04:02.737Z,75.93
2018-09-29T09:05:02.635Z,77.80
2018-09-29T09:06:02.558Z,78.47
2018-09-29T09:07:02.487Z,78.05
2018-09-29T09:08:02.409Z,82.54
2018-09-29T09:09:02.333Z,81.40
2018-09-29T09:10:02.258Z,76.94
2018-09-29T09:11:02.183Z,77.76
2018-09-29T09:12:02.110Z,75.89
2018-09-29T09:13:02.032Z,79.73
2018-09-29T09:14:01.960Z,83.56
2018-09-29T09:15:01.891Z,86.38
2018-09-29T09:16:01.811Z,86.52
2018-09-29T09:17:01.774Z,84.27
2018-09-29T09:18:01.661Z,79.39
2018-09-29T09:19:01.585Z,78.95
2018-09-29T09:20:01.512Z,77.33
2018-09-29T09:21:01.436Z,77.38
2018-09-29T09:22:01.364Z,79.44
2018-09-29T09:23:01.329Z,79.79
2018-09-29T09:24:01.215Z,84.23
2018-09-29T09:25:01.136Z,77.63
2018-09-29T09:26:01.064Z,76.75
2018-09-29T09:27:00.992Z,73.69
2018-09-29T09:28:00.918Z,71.91
2018-09-29T09:29:00.844Z,69.32
2018-09-29T09:30:00.880Z,68.59
2018-09-29T09:31:00.697Z,68.59
2018-09-29T09:32:00.622Z,70.18
2018-09-29T09:33:00.544Z,72.54
2018-09-29T09:34:00.475Z,71.20
2018-09-29T09:35:00.401Z,69.82
2018-09-29T09:36:00.324Z,71.13
2018-09-29T09:37:00.247Z,74.04
2018-09-29T09:38:00.176Z,70.09
2018-09-29T09:39:00.101Z,66.77
2018-09-29T09:40:00.027Z,65.01
2018-09-29T09:40:59.953Z,61.30
2018-09-29T09:41:59.881Z,58.84
2018-09-29T09:42:59.805Z,57.50
2018-09-29T09:43:59.735Z,57.30
2018-09-29T09:44:59.662Z,59.16
2018-09-29T09:45:59.584Z,61.21
2018-09-29T09:46:59.510Z,61.34
2018-09-29T09:47:59.442Z,60.79
2018-09-29T09:48:59.364Z,58.59
2018-09-29T09:49:59.291Z,58.69
2018-09-29T09:50:59.219Z,58.37
2018-09-29T09:51:59.147Z,60.80
2018-09-29T09:52:59.069Z,62.36
2018-09-29T09:53:59.001Z,62.36
2018-09-29T09:54:58.927Z,62.93
2018-09-29T09:55:58.919Z,60.99
2018-09-29T09:56:58.778Z,62.68
2018-09-29T09:57:58.703Z,63.10
2018-09-29T09:58:58.632Z,62.68
2018-09-29T09:59:58.563Z,64.15
2018-09-29T10:00:58.490Z,62.52
2018-09-29T10:01:58.411Z,62.23
2018-09-29T10:02:58.341Z,62.33
2018-09-29T10:03:58.268Z,61.88
2018-09-29T10:04:58.196Z,59.97
2018-09-29T10:05:58.120Z,59.84
2018-09-29T10:06:58.047Z,63.06
2018-09-29T10:07:57.975Z,64.12
2018-09-29T10:08:57.901Z,65.45
2018-09-29T10:09:57.828Z,62.87
2018-09-29T10:10:57.754Z,63.45
2018-09-29T10:11:57.684Z,63.32
2018-09-29T10:12:57.614Z,63.45
2018-09-29T10:13:57.538Z,62.11
2018-09-29T10:14:57.491Z,62.01
2018-09-29T10:15:57.388Z,61.31
2018-09-29T10:16:57.315Z,63.93
2018-09-29T10:17:57.243Z,64.31
2018-09-29T10:18:57.169Z,63.13
2018-09-29T10:19:57.096Z,62.94
2018-09-29T10:20:57.023Z,63.42
2018-09-29T10:21:56.950Z,64.47
2018-09-29T10:22:56.876Z,64.75
2018-09-29T10:23:56.807Z,65.36
2018-09-29T10:24:56.729Z,64.40
2018-09-29T10:25:56.658Z,63.93
2018-09-29T10:26:56.582Z,62.97
2018-09-29T10:27:56.513Z,62.97
2018-09-29T10:28:56.435Z,63.45
2018-09-29T10:29:56.362Z,61.98
2018-09-29T10:30:56.307Z,62.46
2018-09-29T10:31:56.221Z,61.88
2018-09-29T10:32:56.140Z,61.09
2018-09-29T10:33:56.068Z,62.81
2018-09-29T10:34:55.993Z,63.67
2018-09-29T10:35:55.921Z,62.81
2018-09-29T10:36:55.849Z,61.88
2018-09-29T10:37:55.772Z,61.88
2018-09-29T10:38:55.697Z,62.37
2018-09-29T10:39:55.625Z,61.98
2018-09-29T10:40:55.551Z,61.02
2018-09-29T10:41:55.478Z,61.88
2018-09-29T10:42:55.408Z,61.69
2018-09-29T10:43:55.330Z,62.14
2018-09-29T10:44:55.257Z,62.71
2018-09-29T10:45:55.183Z,63.00
2018-09-29T10:46:55.108Z,62.43
2018-09-29T10:47:55.034Z,63.10
2018-09-29T10:48:54.961Z,64.47
2018-09-29T10:49:54.885Z,65.33
2018-09-29T10:50:54.813Z,64.56
2018-09-29T10:51:54.738Z,64.69
2018-09-29T10:52:54.680Z,63.73
2018-09-29T10:53:54.589Z,63.83
2018-09-29T10:54:54.516Z,63.35
2018-09-29T10:55:54.446Z,63.99
2018-09-29T10:56:54.370Z,65.08
2018-09-29T10:57:54.295Z,64.12
2018-09-29T10:58:54.222Z,64.88
2018-09-29T10:59:54.147Z,63.54
2018-09-29T11:00:54.073Z,61.31
2018-09-29T11:01:53.999Z,61.02
2018-09-29T11:02:53.930Z,61.22
2018-09-29T11:03:53.853Z,61.88
2018-09-29T11:04:53.811Z,61.02
2018-09-29T11:05:53.710Z,59.40
2018-09-29T11:06:53.638Z,59.30
2018-09-29T11:07:53.557Z,59.97
2018-09-29T11:08:53.487Z,60.38
2018-09-29T11:09:53.410Z,60.96
2018-09-29T11:10:53.338Z,60.86
2018-09-29T11:11:53.269Z,61.44
2018-09-29T11:12:53.188Z,61.82
2018-09-29T11:13:53.115Z,59.72
2018-09-29T11:14:53.044Z,58.66
2018-09-29T11:15:52.973Z,58.56
2018-09-29T11:16:52.894Z,59.33
2018-09-29T11:17:52.821Z,59.52
2018-09-29T11:18:52.749Z,59.65
2018-09-29T11:19:52.678Z,59.65
2018-09-29T11:20:52.663Z,58.88
2018-09-29T11:21:52.526Z,57.16
2018-09-29T11:22:52.457Z,57.35
2018-09-29T11:23:52.381Z,57.06
2018-09-29T11:24:52.302Z,57.70
2018-09-29T11:25:52.228Z,58.66
2018-09-29T11:26:52.157Z,58.56
2018-09-29T11:27:52.164Z,58.47
2018-09-29T11:28:52.013Z,58.28
2018-09-29T11:29:51.940Z,57.45
2018-09-29T11:30:51.865Z,57.06
2018-09-29T11:31:51.795Z,56.68
2018-09-29T11:32:51.719Z,56.30
2018-09-29T11:33:51.643Z,56.39
2018-09-29T11:34:51.573Z,57.26
2018-09-29T11:35:51.498Z,57.35
2018-09-29T11:36:51.429Z,55.63
2018-09-29T11:37:51.355Z,55.82
2018-09-29T11:38:51.280Z,55.34
2018-09-29T11:39:51.207Z,55.63
2018-09-29T11:40:51.132Z,56.20
2018-09-29T11:41:51.062Z,55.44
2018-09-29T11:42:50.987Z,56.01
2018-09-29T11:43:50.913Z,54.67
2018-09-29T11:44:50.947Z,54.28
2018-09-29T11:45:50.775Z,54.57
2018-09-29T11:46:50.702Z,56.01
2018-09-29T11:47:50.626Z,56.20
2018-09-29T11:48:50.552Z,56.01
2018-09-29T11:49:50.483Z,56.59
2018-09-29T11:50:50.462Z,55.82
2018-09-29T11:51:50.330Z,56.39
2018-09-29T11:52:50.264Z,56.59
2018-09-29T11:53:50.185Z,56.49
2018-09-29T11:54:50.118Z,56.10
2018-09-29T11:55:50.039Z,55.34
2018-09-29T11:56:49.967Z,54.57
2018-09-29T11:57:49.895Z,55.56
2018-09-29T11:58:49.822Z,56.13
2018-09-29T11:59:49.751Z,55.94
2018-09-29T12:00:49.678Z,54.99
2018-09-29T12:01:49.708Z,54.00
2018-09-29T12:02:49.530Z,55.08
2018-09-29T12:03:49.460Z,54.41
2018-09-29T12:04:49.391Z,54.82
2018-09-29T12:05:49.387Z,53.36
2018-09-29T12:06:49.249Z,53.38
2018-09-29T12:07:49.233Z,52.33
2018-09-29T12:08:49.093Z,51.85
2018-09-29T12:09:49.025Z,53.36
2018-09-29T12:10:48.950Z,54.15
2018-09-29T12:11:48.877Z,54.24
2018-09-29T12:12:48.805Z,52.91
2018-09-29T12:13:48.751Z,52.14
2018-09-29T12:14:48.663Z,51.85
2018-09-29T12:15:48.588Z,51.85
2018-09-29T12:16:48.516Z,52.33
2018-09-29T12:17:48.443Z,52.04
2018-09-29T12:18:48.370Z,51.37
2018-09-29T12:19:48.297Z,51.59
2018-09-29T12:20:48.223Z,51.46
2018-09-29T12:21:48.155Z,51.37
2018-09-29T12:22:48.084Z,51.75
2018-09-29T12:23:48.013Z,51.56
2018-09-29T12:24:47.937Z,51.28
2018-09-29T12:25:47.872Z,51.37
2018-09-29T12:26:47.796Z,50.41
2018-09-29T12:27:47.724Z,50.32
2018-09-29T12:28:47.649Z,50.22
2018-09-29T12:29:47.589Z,50.99
2018-09-29T12:30:47.510Z,51.06
2018-09-29T12:31:47.429Z,50.29
2018-09-29T12:32:47.368Z,50.87
2018-09-29T12:33:47.292Z,51.34
2018-09-29T12:34:47.215Z,50.20
2018-09-29T12:35:47.151Z,49.91
2018-09-29T12:36:47.087Z,49.81
2018-09-29T12:37:47.077Z,50.58
2018-09-29T12:38:46.925Z,51.44
2018-09-29T12:39:46.857Z,51.15
2018-09-29T12:40:46.782Z,51.15
2018-09-29T12:41:46.710Z,50.20
2018-09-29T12:42:46.637Z,51.15
2018-09-29T12:43:46.568Z,51.15
2018-09-29T12:44:46.523Z,51.54
2018-09-29T12:45:46.423Z,50.96
2018-09-29T12:46:46.345Z,50.20
2018-09-29T12:47:46.276Z,50.38
2018-09-29T12:48:46.200Z,49.62
2018-09-29T12:49:46.134Z,50.20
2018-09-29T12:50:46.055Z,50.48
2018-09-29T12:51:45.987Z,50.20